createdAt,value
2022-12-24T00:00:09.135Z,6.65
2022-12-24T00:02:35.900Z,5.50
2022-12-24T00:05:02.666Z,5.78
2022-12-24T00:07:29.839Z,5.95
2022-12-24T00:09:56.523Z,5.55
2022-12-24T00:12:23.220Z,6.03
2022-12-24T00:14:49.864Z,5.68
2022-12-24T00:17:16.637Z,5.55
2022-12-24T00:19:43.368Z,6.05
2022-12-24T00:22:10.374Z,5.78
2022-12-24T00:24:37.137Z,5.75
2022-12-24T00:27:05.889Z,5.45
2022-12-24T00:29:33.430Z,5.28
2022-12-24T00:32:00.124Z,5.88
2022-12-24T00:34:26.877Z,5.40
2022-12-24T00:36:53.523Z,5.50
2022-12-24T00:39:20.195Z,5.40
2022-12-24T00:41:46.832Z,6.50
2022-12-24T00:44:13.485Z,5.88
2022-12-24T00:46:41.274Z,6.25
2022-12-24T00:49:08.922Z,6.80
2022-12-24T00:51:36.941Z,5.60
2022-12-24T00:54:04.488Z,5.70
2022-12-24T00:56:31.313Z,5.95
2022-12-24T00:58:58.152Z,5.20
2022-12-24T01:01:25.547Z,5.57
2022-12-24T01:03:52.788Z,5.50
2022-12-24T01:06:21.845Z,5.95
2022-12-24T01:08:52.055Z,6.03
2022-12-24T01:11:18.981Z,5.50
2022-12-24T01:13:45.660Z,5.63
2022-12-24T01:16:18.342Z,5.97
2022-12-24T01:18:45.087Z,5.50
2022-12-24T01:21:13.542Z,5.75
2022-12-24T01:23:40.214Z,6.15
2022-12-24T01:26:06.896Z,5.93
2022-12-24T01:28:34.124Z,5.60
2022-12-24T01:31:00.923Z,6.28
2022-12-24T01:33:30.627Z,5.93
2022-12-24T01:35:57.339Z,5.65
2022-12-24T01:38:24.060Z,6.15
2022-12-24T01:41:09.368Z,5.40
2022-12-24T01:43:36.106Z,5.70
2022-12-24T01:46:07.260Z,5.88
2022-12-24T01:48:49.409Z,5.53
2022-12-24T01:51:37.644Z,5.72
2022-12-24T01:54:13.158Z,6.43
2022-12-24T01:56:45.713Z,6.78
2022-12-24T01:59:16.664Z,5.70
2022-12-24T02:01:43.363Z,5.93
2022-12-24T02:04:21.992Z,5.80
2022-12-24T02:06:48.670Z,5.93
2022-12-24T02:09:15.581Z,5.55
2022-12-24T02:11:44.812Z,6.82
2022-12-24T02:14:13.795Z,5.85
2022-12-24T02:16:54.556Z,6.20
2022-12-24T02:19:41.966Z,7.45
2022-12-24T02:22:20.342Z,7.85
2022-12-24T02:25:24.337Z,6.20
2022-12-24T02:28:21.099Z,6.13
2022-12-24T02:31:01.819Z,6.00
2022-12-24T02:34:09.717Z,6.28
2022-12-24T02:36:45.819Z,5.65
2022-12-24T02:39:20.654Z,7.25
2022-12-24T02:42:07.581Z,6.97
2022-12-24T02:45:01.732Z,6.30
2022-12-24T02:47:33.580Z,6.65
2022-12-24T02:50:02.392Z,6.32
2022-12-24T02:52:35.151Z,8.35
2022-12-24T02:55:10.017Z,6.68
2022-12-24T02:57:58.157Z,6.00
2022-12-24T03:00:25.679Z,5.88
2022-12-24T03:03:12.416Z,6.10
2022-12-24T03:05:57.738Z,7.25
2022-12-24T03:08:51.635Z,5.75
2022-12-24T03:11:18.437Z,5.68
2022-12-24T03:13:46.341Z,5.75
2022-12-24T03:16:17.392Z,5.70
2022-12-24T03:18:47.637Z,5.63
2022-12-24T03:21:19.809Z,6.10
2022-12-24T03:23:47.451Z,6.35
2022-12-24T03:26:16.295Z,5.88
2022-12-24T03:28:43.823Z,5.55
2022-12-24T03:31:11.219Z,6.18
2022-12-24T03:33:38.540Z,6.25
2022-12-24T03:36:06.319Z,6.07
2022-12-24T03:38:33.557Z,6.68
2022-12-24T03:41:00.897Z,5.97
2022-12-24T03:43:27.599Z,6.00
2022-12-24T03:45:54.321Z,5.90
2022-12-24T03:48:21.032Z,5.65
2022-12-24T03:50:47.690Z,5.72
2022-12-24T03:53:14.335Z,5.65
2022-12-24T03:55:40.976Z,5.80
2022-12-24T03:58:07.701Z,5.97
2022-12-24T04:00:34.363Z,6.82
2022-12-24T04:03:01.046Z,6.03
2022-12-24T04:05:27.734Z,6.45
2022-12-24T04:07:54.371Z,7.57
2022-12-24T04:10:21.022Z,5.88
2022-12-24T04:12:47.681Z,5.82
2022-12-24T04:15:14.365Z,6.13
2022-12-24T04:17:41.029Z,5.70
2022-12-24T04:20:08.359Z,5.93
2022-12-24T04:22:35.036Z,6.70
2022-12-24T04:25:01.647Z,5.75
2022-12-24T04:27:30.717Z,6.60
2022-12-24T04:29:57.808Z,6.10
2022-12-24T04:32:26.191Z,5.45
2022-12-24T04:34:52.928Z,5.53
2022-12-24T04:37:19.612Z,6.28
2022-12-24T04:39:46.255Z,6.60
2022-12-24T04:42:12.901Z,5.80
2022-12-24T04:44:39.535Z,5.18
2022-12-24T04:47:06.180Z,5.38
2022-12-24T04:49:32.921Z,6.38
2022-12-24T04:51:59.580Z,5.70
2022-12-24T04:54:26.294Z,5.90
2022-12-24T04:56:52.920Z,6.28
2022-12-24T04:59:19.670Z,6.32
2022-12-24T05:01:46.476Z,5.82
2022-12-24T05:04:13.251Z,6.05
2022-12-24T05:06:39.922Z,5.60
2022-12-24T05:09:06.654Z,6.05
2022-12-24T05:11:33.311Z,5.80
2022-12-24T05:13:59.936Z,5.30
2022-12-24T05:16:26.697Z,6.18
2022-12-24T05:18:53.712Z,5.97
2022-12-24T05:21:22.781Z,6.43
2022-12-24T05:24:08.112Z,5.40
2022-12-24T05:26:40.465Z,5.97
2022-12-24T05:29:12.084Z,6.18
2022-12-24T05:31:40.192Z,5.90
2022-12-24T05:34:08.192Z,7.57
2022-12-24T05:36:35.224Z,6.95
2022-12-24T05:39:02.192Z,6.32
2022-12-24T05:41:29.013Z,5.43
2022-12-24T05:43:56.268Z,6.25
2022-12-24T05:46:24.066Z,6.40
2022-12-24T05:48:52.286Z,6.32
2022-12-24T05:51:23.501Z,6.88
2022-12-24T05:53:52.171Z,6.13
2022-12-24T05:56:22.400Z,6.15
2022-12-24T05:58:50.315Z,6.15
2022-12-24T06:01:17.126Z,6.50
2022-12-24T06:03:44.008Z,7.07
2022-12-24T06:06:19.147Z,6.70
2022-12-24T06:08:46.140Z,5.68
2022-12-24T06:11:15.012Z,6.10
2022-12-24T06:13:42.727Z,7.07
2022-12-24T06:16:17.572Z,7.40
2022-12-24T06:18:44.779Z,6.43
2022-12-24T06:21:12.537Z,6.50
2022-12-24T06:23:41.588Z,7.10
2022-12-24T06:26:09.721Z,7.97
2022-12-24T06:28:37.714Z,7.05
2022-12-24T06:31:06.358Z,6.40
2022-12-24T06:33:34.177Z,6.38
2022-12-24T06:36:00.943Z,6.30
2022-12-24T06:38:30.972Z,6.90
2022-12-24T06:40:57.623Z,7.50
2022-12-24T06:43:24.285Z,7.20
2022-12-24T06:45:50.911Z,7.50
2022-12-24T06:48:17.680Z,6.70
2022-12-24T06:50:44.353Z,7.00
2022-12-24T06:53:11.107Z,7.03
2022-12-24T06:55:38.184Z,6.45
2022-12-24T06:58:05.178Z,7.07
2022-12-24T07:00:31.991Z,7.93
2022-12-24T07:02:58.867Z,6.38
2022-12-24T07:05:25.866Z,7.15
2022-12-24T07:07:52.611Z,7.55
2022-12-24T07:10:20.223Z,7.22
2022-12-24T07:12:47.643Z,7.22
2022-12-24T07:15:15.535Z,7.18
2022-12-24T07:17:42.266Z,6.85
2022-12-24T07:20:13.483Z,6.35
2022-12-24T07:22:40.242Z,6.70
2022-12-24T07:25:07.302Z,6.55
2022-12-24T07:27:34.030Z,7.30
2022-12-24T07:30:00.676Z,6.65
2022-12-24T07:32:27.352Z,7.00
2022-12-24T07:34:53.969Z,6.90
2022-12-24T07:37:21.022Z,6.57
2022-12-24T07:39:47.665Z,6.43
2022-12-24T07:42:14.415Z,7.47
2022-12-24T07:44:41.079Z,6.15
2022-12-24T07:47:07.753Z,8.10
2022-12-24T07:49:35.109Z,7.10
2022-12-24T07:52:02.148Z,6.95
2022-12-24T07:54:28.831Z,6.50
2022-12-24T07:56:55.487Z,8.18
2022-12-24T07:59:22.244Z,6.88
2022-12-24T08:01:49.003Z,7.97
2022-12-24T08:04:15.794Z,7.93
2022-12-24T08:06:42.478Z,7.05
2022-12-24T08:09:09.120Z,7.15
2022-12-24T08:11:35.773Z,7.43
2022-12-24T08:14:02.382Z,8.80
2022-12-24T08:16:29.094Z,10.15
2022-12-24T08:18:55.827Z,7.13
2022-12-24T08:21:22.495Z,7.78
2022-12-24T08:23:49.157Z,6.63
2022-12-24T08:26:16.003Z,7.93
2022-12-24T08:28:42.751Z,7.38
2022-12-24T08:31:09.490Z,8.23
2022-12-24T08:33:36.210Z,7.20
2022-12-24T08:36:03.286Z,8.48
2022-12-24T08:38:29.922Z,6.95
2022-12-24T08:40:56.657Z,8.77
2022-12-24T08:43:25.457Z,7.88
2022-12-24T08:45:52.545Z,7.88
2022-12-24T08:48:19.276Z,7.55
2022-12-24T08:50:46.230Z,6.97
2022-12-24T08:53:13.536Z,7.50
2022-12-24T08:55:40.223Z,7.40
2022-12-24T08:58:06.899Z,8.38
2022-12-24T09:00:33.545Z,7.82
2022-12-24T09:03:00.562Z,6.60
2022-12-24T09:05:27.667Z,7.00
2022-12-24T09:07:54.290Z,7.65
2022-12-24T09:10:21.211Z,9.68
2022-12-24T09:12:47.899Z,7.75
2022-12-24T09:15:14.905Z,7.70
2022-12-24T09:17:42.226Z,7.32
2022-12-24T09:20:09.577Z,7.45
2022-12-24T09:22:37.773Z,7.85
2022-12-24T09:25:06.270Z,7.88
2022-12-24T09:27:33.162Z,7.13
2022-12-24T09:29:59.805Z,7.10
2022-12-24T09:32:26.479Z,7.03
2022-12-24T09:34:53.173Z,7.90
2022-12-24T09:37:19.965Z,7.85
2022-12-24T09:39:46.590Z,6.70
2022-12-24T09:42:40.781Z,6.32
2022-12-24T09:45:24.293Z,7.63
2022-12-24T09:48:03.620Z,7.55
2022-12-24T09:50:39.312Z,7.65
2022-12-24T09:53:22.123Z,9.10
2022-12-24T09:55:56.401Z,6.40
2022-12-24T09:58:34.511Z,6.75
2022-12-24T10:01:01.624Z,7.13
2022-12-24T10:03:28.512Z,7.03
2022-12-24T10:06:14.440Z,8.57
2022-12-24T10:08:50.405Z,7.70
2022-12-24T10:11:44.388Z,6.75
2022-12-24T10:14:37.087Z,8.85
2022-12-24T10:17:44.879Z,6.85
2022-12-24T10:20:20.104Z,6.72
2022-12-24T10:22:53.577Z,6.75
2022-12-24T10:25:34.915Z,6.20
2022-12-24T10:28:03.792Z,6.88
2022-12-24T10:30:30.533Z,5.90
2022-12-24T10:32:57.188Z,7.10
2022-12-24T10:35:29.272Z,5.30
2022-12-24T10:37:57.950Z,5.72
2022-12-24T10:40:42.276Z,6.20
2022-12-24T10:43:21.639Z,6.65
2022-12-24T10:45:59.360Z,5.90
2022-12-24T10:48:32.097Z,6.20
2022-12-24T10:51:05.947Z,6.20
2022-12-24T10:53:40.230Z,6.15
2022-12-24T10:56:10.901Z,6.07
2022-12-24T10:58:42.731Z,5.97
2022-12-24T11:01:09.548Z,6.15
2022-12-24T11:03:37.186Z,6.32
2022-12-24T11:06:10.615Z,5.85
2022-12-24T11:08:41.289Z,5.65
2022-12-24T11:11:20.407Z,5.82
2022-12-24T11:13:56.667Z,5.80
2022-12-24T11:16:29.659Z,5.95
2022-12-24T11:18:59.075Z,6.72
2022-12-24T11:21:48.383Z,5.57
2022-12-24T11:24:25.842Z,7.30
2022-12-24T11:26:52.490Z,6.20
2022-12-24T11:29:24.878Z,6.55
2022-12-24T11:31:54.949Z,6.80
2022-12-24T11:34:33.716Z,6.70
2022-12-24T11:37:21.718Z,6.95
2022-12-24T11:39:54.166Z,5.97
2022-12-24T11:42:29.556Z,7.03
2022-12-24T11:44:57.551Z,6.68
2022-12-24T11:47:39.246Z,6.85
2022-12-24T11:50:26.730Z,6.43
2022-12-24T11:53:04.348Z,6.18
2022-12-24T11:55:52.601Z,6.97
2022-12-24T11:58:35.393Z,6.25
2022-12-24T12:01:25.869Z,6.93
2022-12-24T12:04:01.732Z,5.78
2022-12-24T12:07:08.341Z,6.35
2022-12-24T12:09:44.058Z,6.20
2022-12-24T12:12:18.751Z,7.97
2022-12-24T12:14:46.836Z,5.70
2022-12-24T12:17:53.854Z,7.25
2022-12-24T12:20:42.784Z,7.28
2022-12-24T12:23:38.172Z,6.10
2022-12-24T12:26:11.217Z,8.48
2022-12-24T12:28:49.479Z,6.45
2022-12-24T12:31:35.503Z,6.93
2022-12-24T12:34:17.109Z,6.53
2022-12-24T12:36:49.296Z,6.00
2022-12-24T12:39:15.961Z,6.80
2022-12-24T12:42:13.123Z,7.35
2022-12-24T12:45:01.608Z,5.35
2022-12-24T12:47:37.264Z,6.32
2022-12-24T12:50:11.313Z,5.85
2022-12-24T12:52:46.065Z,5.95
2022-12-24T12:55:38.951Z,6.95
2022-12-24T12:58:19.150Z,6.80
2022-12-24T13:00:48.814Z,6.05
2022-12-24T13:03:27.174Z,6.68
2022-12-24T13:06:24.155Z,6.50
2022-12-24T13:09:06.899Z,6.50
2022-12-24T13:12:09.587Z,6.22
2022-12-24T13:14:39.230Z,6.43
2022-12-24T13:17:22.377Z,6.00
2022-12-24T13:20:17.105Z,5.65
2022-12-24T13:22:51.360Z,5.55
2022-12-24T13:25:27.321Z,6.00
2022-12-24T13:27:54.101Z,5.18
2022-12-24T13:30:39.197Z,5.90
2022-12-24T13:33:11.614Z,5.32
2022-12-24T13:35:59.090Z,5.85
2022-12-24T13:38:28.447Z,6.80
2022-12-24T13:40:55.741Z,6.97
2022-12-24T13:43:22.636Z,7.97
2022-12-24T13:45:51.365Z,7.70
2022-12-24T13:48:34.508Z,7.40
2022-12-24T13:51:19.437Z,6.82
2022-12-24T13:53:48.411Z,7.68
2022-12-24T13:56:17.721Z,6.47
2022-12-24T13:58:48.816Z,7.05
2022-12-24T14:01:22.068Z,6.90
2022-12-24T14:03:57.248Z,6.60
2022-12-24T14:06:25.176Z,8.07
2022-12-24T14:08:55.598Z,7.40
2022-12-24T14:11:25.307Z,8.30
2022-12-24T14:13:55.054Z,7.07
2022-12-24T14:16:23.653Z,6.32
2022-12-24T14:18:59.458Z,6.80
2022-12-24T14:21:30.978Z,8.23
2022-12-24T14:24:12.682Z,6.90
2022-12-24T14:26:56.002Z,6.60
2022-12-24T14:29:29.382Z,6.82
2022-12-24T14:31:58.661Z,6.95
2022-12-24T14:34:26.178Z,7.10
2022-12-24T14:36:55.852Z,6.70
2022-12-24T14:39:33.284Z,7.10
2022-12-24T14:42:18.494Z,6.93
2022-12-24T14:45:06.893Z,6.78
2022-12-24T14:48:11.287Z,6.28
2022-12-24T14:51:07.417Z,6.38
2022-12-24T14:54:21.636Z,6.97
2022-12-24T14:57:06.282Z,8.25
2022-12-24T14:59:47.873Z,6.65
2022-12-24T15:02:47.929Z,6.95
2022-12-24T15:05:28.506Z,7.03
2022-12-24T15:08:01.608Z,6.32
2022-12-24T15:10:37.847Z,6.13
2022-12-24T15:13:12.391Z,8.25
2022-12-24T15:15:46.928Z,6.93
2022-12-24T15:18:22.511Z,6.85
2022-12-24T15:20:56.087Z,6.90
2022-12-24T15:23:35.021Z,9.00
2022-12-24T15:26:08.708Z,6.65
2022-12-24T15:28:38.357Z,7.80
2022-12-24T15:31:13.430Z,7.28
2022-12-24T15:33:40.685Z,6.90
2022-12-24T15:36:08.438Z,7.10
2022-12-24T15:38:38.244Z,7.70
2022-12-24T15:41:15.098Z,7.10
2022-12-24T15:43:43.449Z,6.05
2022-12-24T15:46:10.436Z,6.95
2022-12-24T15:48:38.272Z,6.85
2022-12-24T15:51:05.761Z,8.90
2022-12-24T15:53:37.211Z,6.80
2022-12-24T15:56:12.986Z,6.68
2022-12-24T15:58:44.770Z,6.65
2022-12-24T16:01:15.215Z,6.65
2022-12-24T16:03:54.559Z,8.40
2022-12-24T16:06:22.580Z,8.75
2022-12-24T16:08:50.940Z,7.05
2022-12-24T16:11:33.418Z,7.40
2022-12-24T16:14:18.787Z,8.52
2022-12-24T16:16:50.283Z,7.05
2022-12-24T16:19:24.186Z,7.03
2022-12-24T16:21:56.392Z,8.15
2022-12-24T16:24:27.002Z,7.15
2022-12-24T16:26:54.554Z,6.57
2022-12-24T16:29:22.510Z,6.32
2022-12-24T16:31:54.532Z,6.40
2022-12-24T16:34:25.942Z,6.80
2022-12-24T16:36:52.692Z,6.72
2022-12-24T16:39:23.507Z,6.20
2022-12-24T16:42:13.156Z,5.90
2022-12-24T16:44:40.487Z,5.97
2022-12-24T16:47:12.062Z,6.50
2022-12-24T16:49:39.052Z,5.75
2022-12-24T16:52:07.303Z,6.15
2022-12-24T16:54:33.982Z,7.00
2022-12-24T16:57:00.631Z,6.45
2022-12-24T16:59:27.352Z,6.57
2022-12-24T17:01:54.160Z,6.05
2022-12-24T17:04:20.932Z,5.90
2022-12-24T17:06:50.296Z,7.20
2022-12-24T17:09:17.156Z,5.40
2022-12-24T17:11:43.826Z,6.15
2022-12-24T17:14:19.677Z,7.10
2022-12-24T17:16:47.138Z,6.20
2022-12-24T17:19:13.791Z,5.75
2022-12-24T17:21:40.859Z,11.57
2022-12-24T17:24:08.764Z,6.45
2022-12-24T17:26:36.038Z,8.10
2022-12-24T17:29:05.096Z,7.88
2022-12-24T17:31:32.908Z,7.85
2022-12-24T17:34:00.246Z,7.55
2022-12-24T17:36:27.050Z,6.65
2022-12-24T17:38:53.689Z,6.90
2022-12-24T17:41:21.316Z,7.40
2022-12-24T17:43:48.736Z,6.43
2022-12-24T17:46:22.438Z,7.68
2022-12-24T17:48:52.380Z,11.73
2022-12-24T17:51:22.127Z,7.88
2022-12-24T17:53:49.135Z,8.30
2022-12-24T17:56:16.441Z,8.55
2022-12-24T17:58:44.741Z,7.40
2022-12-24T18:01:17.706Z,8.15
2022-12-24T18:03:44.966Z,8.32
2022-12-24T18:06:12.401Z,7.72
2022-12-24T18:08:39.969Z,8.40
2022-12-24T18:11:19.280Z,7.88
2022-12-24T18:13:46.611Z,7.43
2022-12-24T18:16:14.260Z,9.05
2022-12-24T18:18:41.053Z,9.40
2022-12-24T18:21:07.789Z,8.25
2022-12-24T18:23:34.428Z,9.43
2022-12-24T18:26:03.221Z,8.55
2022-12-24T18:28:30.259Z,8.02
2022-12-24T18:31:01.783Z,7.13
2022-12-24T18:33:29.247Z,7.70
2022-12-24T18:35:56.010Z,8.20
2022-12-24T18:38:22.762Z,9.35
2022-12-24T18:40:49.669Z,8.80
2022-12-24T18:43:16.707Z,8.98
2022-12-24T18:45:44.673Z,9.00
2022-12-24T18:48:12.007Z,15.05
2022-12-24T18:50:40.211Z,19.45
2022-12-24T18:53:07.231Z,10.73
2022-12-24T18:55:37.814Z,8.85
2022-12-24T18:58:04.544Z,9.70
2022-12-24T19:00:31.282Z,9.27
2022-12-24T19:02:58.050Z,8.45
2022-12-24T19:05:24.740Z,8.15
2022-12-24T19:07:51.352Z,8.30
2022-12-24T19:10:18.042Z,8.20
2022-12-24T19:12:44.672Z,8.02
2022-12-24T19:15:11.464Z,8.63
2022-12-24T19:17:38.086Z,8.07
2022-12-24T19:20:05.584Z,8.40
2022-12-24T19:22:32.218Z,8.73
2022-12-24T19:24:58.930Z,9.00
2022-12-24T19:27:25.582Z,9.50
2022-12-24T19:29:52.244Z,10.60
2022-12-24T19:32:19.039Z,8.45
2022-12-24T19:34:45.690Z,8.57
2022-12-24T19:37:12.496Z,7.50
2022-12-24T19:39:39.222Z,8.43
2022-12-24T19:42:05.968Z,6.70
2022-12-24T19:44:32.600Z,7.22
2022-12-24T19:46:59.221Z,7.70
2022-12-24T19:49:25.858Z,7.82
2022-12-24T19:51:54.653Z,9.35
2022-12-24T19:54:21.990Z,9.30
2022-12-24T19:56:48.625Z,9.43
2022-12-24T19:59:15.433Z,9.98
2022-12-24T20:01:42.203Z,8.07
2022-12-24T20:04:10.356Z,8.88
2022-12-24T20:06:37.088Z,8.55
2022-12-24T20:09:06.282Z,13.63
2022-12-24T20:11:33.599Z,12.23
2022-12-24T20:14:01.961Z,13.30
2022-12-24T20:16:29.614Z,29.05
2022-12-24T20:18:59.979Z,38.47
2022-12-24T20:21:27.804Z,32.53
2022-12-24T20:23:54.841Z,17.65
2022-12-24T20:26:26.121Z,19.10
2022-12-24T20:28:53.086Z,11.50
2022-12-24T20:31:25.925Z,12.65
2022-12-24T20:33:53.117Z,11.70
2022-12-24T20:36:22.710Z,11.95
2022-12-24T20:38:49.972Z,12.40
2022-12-24T20:41:19.223Z,10.18
2022-12-24T20:43:48.628Z,10.30
2022-12-24T20:46:19.766Z,10.63
2022-12-24T20:48:46.580Z,10.93
2022-12-24T20:51:22.770Z,10.30
2022-12-24T20:53:51.287Z,10.07
2022-12-24T20:56:18.373Z,8.93
2022-12-24T20:58:45.571Z,10.27
2022-12-24T21:01:16.772Z,10.40
2022-12-24T21:03:43.610Z,10.35
2022-12-24T21:06:10.577Z,9.82
2022-12-24T21:08:37.333Z,8.40
2022-12-24T21:11:22.963Z,7.32
2022-12-24T21:13:49.611Z,7.93
2022-12-24T21:16:16.425Z,7.25
2022-12-24T21:18:43.105Z,7.45
2022-12-24T21:21:09.714Z,7.47
2022-12-24T21:23:36.460Z,7.20
2022-12-24T21:26:05.689Z,7.05
2022-12-24T21:28:32.833Z,6.80
2022-12-24T21:31:00.051Z,7.07
2022-12-24T21:33:26.798Z,7.45
2022-12-24T21:35:59.842Z,7.15
2022-12-24T21:38:27.122Z,7.05
2022-12-24T21:41:08.913Z,7.50
2022-12-24T21:43:36.208Z,9.27
2022-12-24T21:46:10.017Z,8.73
2022-12-24T21:48:55.911Z,8.10
2022-12-24T21:51:24.367Z,9.32
2022-12-24T21:54:09.548Z,8.60
2022-12-24T21:56:56.266Z,8.88
2022-12-24T21:59:26.886Z,9.57
2022-12-24T22:01:54.494Z,8.52
2022-12-24T22:04:21.336Z,8.95
2022-12-24T22:07:06.787Z,9.60
2022-12-24T22:09:52.295Z,8.70
2022-12-24T22:12:19.105Z,9.07
2022-12-24T22:14:45.751Z,8.32
2022-12-24T22:17:12.456Z,8.05
2022-12-24T22:19:39.101Z,8.23
2022-12-24T22:22:05.800Z,8.60
2022-12-24T22:24:32.661Z,7.85
2022-12-24T22:26:59.313Z,7.82
2022-12-24T22:29:26.006Z,9.10
2022-12-24T22:31:52.977Z,7.47
2022-12-24T22:34:19.648Z,7.75
2022-12-24T22:36:46.351Z,8.00
2022-12-24T22:39:12.990Z,8.02
2022-12-24T22:41:39.615Z,8.35
2022-12-24T22:44:06.297Z,8.70
2022-12-24T22:46:33.039Z,9.32
2022-12-24T22:48:59.713Z,7.65
2022-12-24T22:51:26.341Z,8.77
2022-12-24T22:53:52.997Z,7.90
2022-12-24T22:56:22.226Z,8.32
2022-12-24T22:58:59.039Z,8.18
2022-12-24T23:01:33.958Z,8.32
2022-12-24T23:04:01.335Z,8.02
2022-12-24T23:06:28.324Z,8.35
2022-12-24T23:08:55.051Z,8.52
2022-12-24T23:11:21.693Z,11.10
2022-12-24T23:14:06.965Z,8.45
2022-12-24T23:16:33.982Z,8.68
2022-12-24T23:19:02.520Z,8.65
2022-12-24T23:21:29.590Z,8.25
2022-12-24T23:23:58.020Z,10.07
2022-12-24T23:26:25.380Z,8.27
2022-12-24T23:28:53.059Z,9.05
2022-12-24T23:31:21.059Z,12.15
2022-12-24T23:33:48.934Z,14.95
2022-12-24T23:36:16.325Z,14.30
2022-12-24T23:38:43.028Z,12.65
2022-12-24T23:41:10.661Z,17.60
2022-12-24T23:43:38.069Z,13.75
2022-12-24T23:46:04.842Z,13.63
2022-12-24T23:48:31.534Z,11.77
2022-12-24T23:51:06.479Z,20.08
2022-12-24T23:53:33.424Z,13.10
2022-12-24T23:56:00.583Z,13.70
2022-12-24T23:58:27.557Z,24.00
